Time;durP1;ratioP1;P1;durP2;ratioP2;P2;SDS_P1;SDS_P2;PMS_P1;PMS_P2;Temp;Humidity;BMP_temperature;BMP_pressure;BME280_temperature;BME280_humidity;BME280_pressure;Samples;Min_cycle;Max_cycle;Signal;HPM_P1;HPM_P2
2023/05/21 00:01:38;;;;;;;28.47;19.20;;;16.70;98.80;;;;;;5022789;28;20451;-71
2023/05/21 00:04:24;;;;;;;22.30;18.63;;;16.70;99.00;;;;;;5024962;28;20455;-73
2023/05/21 00:07:11;;;;;;;28.13;20.10;;;16.70;99.00;;;;;;5025087;28;20490;-71
2023/05/21 00:09:57;;;;;;;23.43;17.70;;;16.70;99.10;;;;;;5024600;28;20417;-71
2023/05/21 00:12:42;;;;;;;24.83;17.37;;;16.70;99.10;;;;;;5026987;28;20471;-71
2023/05/21 00:15:28;;;;;;;22.67;18.07;;;16.70;99.20;;;;;;5018796;28;20454;-71
2023/05/21 00:18:13;;;;;;;22.13;18.73;;;16.70;99.30;;;;;;5023607;28;20451;-71
2023/05/21 00:20:59;;;;;;;20.47;17.83;;;16.60;99.50;;;;;;5021738;28;20417;-71
2023/05/21 00:23:46;;;;;;;26.80;18.37;;;16.60;99.60;;;;;;5024880;28;20457;-71
2023/05/21 00:26:32;;;;;;;28.67;18.70;;;16.70;99.60;;;;;;5022383;28;20530;-71
2023/05/21 00:29:17;;;;;;;26.13;18.60;;;16.70;99.60;;;;;;5028341;28;20816;-71
2023/05/21 00:32:03;;;;;;;24.40;19.07;;;16.70;99.60;;;;;;5024267;28;20480;-72
2023/05/21 00:34:49;;;;;;;23.30;18.87;;;16.70;99.60;;;;;;5025277;28;20534;-72
2023/05/21 00:37:34;;;;;;;21.43;18.20;;;16.80;99.30;;;;;;5027672;28;20475;-71
2023/05/21 00:40:21;;;;;;;25.50;18.40;;;16.70;99.20;;;;;;5029295;28;20451;-71
2023/05/21 00:43:09;;;;;;;24.50;19.43;;;16.70;99.00;;;;;;5030686;28;20541;-71
2023/05/21 00:45:55;;;;;;;26.07;17.73;;;16.70;99.50;;;;;;5025927;28;20565;-71
2023/05/21 00:48:40;;;;;;;23.00;19.40;;;16.70;99.40;;;;;;5030222;28;20454;-71
2023/05/21 00:51:29;;;;;;;24.10;18.30;;;16.70;99.60;;;;;;5026031;28;20863;-72
2023/05/21 00:54:14;;;;;;;23.70;17.33;;;16.70;99.50;;;;;;5026076;28;20524;-71
2023/05/21 00:57:02;;;;;;;23.50;17.53;;;16.70;99.60;;;;;;5028698;28;20490;-71
2023/05/21 00:59:50;;;;;;;29.10;18.50;;;16.70;99.70;;;;;;5030901;28;20460;-73
2023/05/21 01:02:37;;;;;;;23.37;18.10;;;16.70;99.60;;;;;;5026701;28;20577;-71
2023/05/21 01:05:23;;;;;;;23.30;18.40;;;16.70;99.60;;;;;;5026702;28;20526;-71
2023/05/21 01:08:09;;;;;;;23.20;18.37;;;16.60;99.90;;;;;;5027794;28;20513;-72
2023/05/21 01:10:55;;;;;;;24.37;18.43;;;16.50;99.90;;;;;;5027157;28;20455;-72
2023/05/21 01:13:42;;;;;;;24.80;18.03;;;16.60;99.90;;;;;;5025611;28;20970;-72
2023/05/21 01:16:28;;;;;;;31.77;18.47;;;16.50;99.90;;;;;;5025944;28;20481;-71
2023/05/21 01:19:16;;;;;;;33.93;19.73;;;16.50;99.90;;;;;;5029799;28;20422;-71
2023/05/21 01:22:08;;;;;;;21.03;16.87;;;16.50;99.90;;;;;;5029377;28;20411;-71
2023/05/21 01:24:55;;;;;;;23.67;18.30;;;16.50;99.90;;;;;;5022379;28;20500;-71
2023/05/21 01:27:40;;;;;;;22.60;18.03;;;16.40;99.90;;;;;;5027214;28;20445;-72
2023/05/21 01:30:26;;;;;;;28.83;20.10;;;16.40;99.90;;;;;;5023847;28;21004;-71
2023/05/21 01:33:18;;;;;;;25.77;18.47;;;16.50;99.90;;;;;;5024481;28;20444;-72
2023/05/21 01:36:08;;;;;;;23.17;18.87;;;16.50;99.90;;;;;;5031963;28;20482;-71
2023/05/21 01:39:00;;;;;;;22.80;18.30;;;16.50;99.90;;;;;;5030185;28;20473;-71
2023/05/21 01:41:49;;;;;;;24.17;16.70;;;16.50;99.90;;;;;;5023337;28;20449;-71
2023/05/21 01:44:36;;;;;;;22.60;17.07;;;16.50;99.90;;;;;;5024652;28;21038;-71
2023/05/21 01:47:22;;;;;;;22.50;17.80;;;16.50;99.90;;;;;;5026978;28;20460;-71
2023/05/21 01:50:09;;;;;;;23.50;18.47;;;16.50;99.90;;;;;;5027585;28;20430;-71
2023/05/21 01:52:57;;;;;;;19.50;16.47;;;16.50;99.90;;;;;;5024649;28;20468;-71
2023/05/21 01:55:42;;;;;;;22.63;18.10;;;16.60;99.90;;;;;;5027742;28;20584;-72
2023/05/21 01:58:29;;;;;;;21.90;18.03;;;16.50;99.90;;;;;;5027099;28;21104;-73
2023/05/21 02:01:14;;;;;;;25.13;17.53;;;16.50;99.90;;;;;;5019961;28;20472;-71
2023/05/21 02:04:00;;;;;;;23.50;17.83;;;16.50;99.90;;;;;;5017493;28;20603;-71
2023/05/21 02:06:45;;;;;;;24.50;17.13;;;16.40;99.90;;;;;;5022588;28;20494;-71
2023/05/21 02:09:31;;;;;;;23.47;19.00;;;16.30;99.90;;;;;;5026253;28;20546;-71
2023/05/21 02:12:17;;;;;;;29.80;17.70;;;16.30;99.90;;;;;;5030851;28;20449;-73
2023/05/21 02:15:05;;;;;;;23.13;18.30;;;16.40;99.90;;;;;;5029731;28;20496;-70
2023/05/21 02:17:51;;;;;;;23.07;17.70;;;16.40;99.90;;;;;;5028225;28;20448;-73
2023/05/21 02:20:37;;;;;;;25.43;17.57;;;16.40;99.90;;;;;;5027668;28;20465;-72
2023/05/21 02:23:22;;;;;;;24.57;18.70;;;16.40;99.90;;;;;;5021717;28;20443;-71
2023/05/21 02:26:08;;;;;;;27.40;18.53;;;16.40;99.90;;;;;;5024533;28;20474;-71
2023/05/21 02:28:54;;;;;;;23.40;17.90;;;16.40;99.90;;;;;;5025782;28;20539;-72
2023/05/21 02:31:41;;;;;;;21.90;17.63;;;16.40;99.90;;;;;;5026523;28;20495;-72
2023/05/21 02:34:26;;;;;;;23.80;16.77;;;16.30;99.90;;;;;;5022673;28;20870;-72
2023/05/21 02:37:11;;;;;;;24.17;17.43;;;16.10;99.90;;;;;;5023772;28;20456;-71
2023/05/21 02:39:57;;;;;;;20.43;16.20;;;16.10;99.90;;;;;;5027638;28;20511;-71
2023/05/21 02:42:42;;;;;;;22.87;17.03;;;16.10;99.90;;;;;;5026001;28;20411;-71
2023/05/21 02:45:29;;;;;;;22.03;18.20;;;16.10;99.90;;;;;;5022974;28;20491;-71
2023/05/21 02:48:16;;;;;;;24.73;17.47;;;16.00;99.90;;;;;;5027646;28;20955;-71
2023/05/21 02:51:02;;;;;;;23.53;16.90;;;16.00;99.90;;;;;;5026915;28;20435;-71
2023/05/21 02:53:47;;;;;;;21.47;17.53;;;16.00;99.90;;;;;;5019905;28;20449;-71
2023/05/21 02:56:32;;;;;;;25.17;17.77;;;15.90;99.90;;;;;;5016513;28;20873;-71
2023/05/21 02:59:18;;;;;;;19.57;16.70;;;15.90;99.90;;;;;;5022555;28;20463;-72
2023/05/21 03:02:04;;;;;;;23.40;18.57;;;15.90;99.90;;;;;;5020415;28;20464;-72
2023/05/21 03:04:51;;;;;;;20.80;17.87;;;15.80;99.90;;;;;;5024523;28;20511;-72
2023/05/21 03:07:36;;;;;;;23.47;17.67;;;15.80;99.90;;;;;;5021535;28;20458;-72
2023/05/21 03:10:22;;;;;;;22.27;17.93;;;15.80;99.90;;;;;;5025043;28;20483;-71
2023/05/21 03:13:08;;;;;;;22.10;17.30;;;15.70;99.90;;;;;;5021511;28;20467;-71
2023/05/21 03:15:55;;;;;;;21.67;17.47;;;15.70;99.90;;;;;;5028938;28;20938;-72
2023/05/21 03:18:42;;;;;;;17.60;15.30;;;15.80;99.90;;;;;;5024428;28;20477;-72
2023/05/21 03:21:31;;;;;;;24.53;17.60;;;15.80;99.90;;;;;;5024770;28;20502;-71
2023/05/21 03:24:16;;;;;;;22.60;18.67;;;15.80;99.90;;;;;;5020979;28;20457;-72
2023/05/21 03:27:01;;;;;;;18.57;16.00;;;15.90;99.90;;;;;;5020856;28;20595;-72
2023/05/21 03:29:47;;;;;;;19.00;16.80;;;15.90;99.90;;;;;;5026443;28;20435;-71
2023/05/21 03:32:36;;;;;;;20.90;16.53;;;15.90;99.90;;;;;;5022751;28;20477;-71
2023/05/21 03:35:21;;;;;;;20.93;16.57;;;15.90;99.90;;;;;;5027618;28;20451;-72
2023/05/21 03:38:08;;;;;;;22.90;16.70;;;15.90;99.90;;;;;;5021188;28;20441;-71
2023/05/21 03:40:54;;;;;;;20.57;17.33;;;15.90;99.90;;;;;;5023313;28;20459;-71
2023/05/21 03:43:39;;;;;;;22.40;16.93;;;16.00;99.90;;;;;;5024829;28;20835;-71
2023/05/21 03:46:26;;;;;;;20.17;17.37;;;15.90;99.90;;;;;;5027389;28;20559;-72
2023/05/21 03:49:12;;;;;;;19.87;17.10;;;15.90;99.90;;;;;;5028021;28;20984;-71
2023/05/21 03:51:57;;;;;;;22.30;17.73;;;15.90;99.90;;;;;;5025792;28;20480;-71
2023/05/21 03:54:44;;;;;;;21.47;16.00;;;15.80;99.90;;;;;;5022879;28;20443;-71
2023/05/21 03:57:30;;;;;;;19.90;16.30;;;15.90;99.90;;;;;;5027231;28;20466;-71
2023/05/21 04:00:16;;;;;;;21.80;16.47;;;15.90;99.90;;;;;;5024156;28;20453;-71
2023/05/21 04:03:01;;;;;;;19.93;16.43;;;15.90;99.90;;;;;;5024178;28;20443;-72
2023/05/21 04:05:47;;;;;;;25.10;16.33;;;15.80;99.90;;;;;;5025007;28;20449;-71
2023/05/21 04:08:32;;;;;;;24.30;18.07;;;15.70;99.90;;;;;;5028074;28;20421;-72
2023/05/21 04:11:19;;;;;;;19.47;15.90;;;15.70;99.90;;;;;;5018793;28;20422;-71
2023/05/21 04:14:05;;;;;;;20.60;16.00;;;15.60;99.90;;;;;;5028651;28;20463;-71
2023/05/21 04:16:50;;;;;;;22.50;17.10;;;15.60;99.90;;;;;;5023851;28;20442;-71
2023/05/21 04:19:36;;;;;;;18.00;15.67;;;15.50;99.90;;;;;;5018479;28;20501;-72
2023/05/21 04:22:22;;;;;;;21.00;16.67;;;15.50;99.90;;;;;;5013091;28;20423;-72
2023/05/21 04:25:08;;;;;;;19.63;16.47;;;15.60;99.90;;;;;;5022467;28;20423;-72
2023/05/21 04:27:54;;;;;;;23.20;17.67;;;15.60;99.90;;;;;;5024731;28;21013;-73
2023/05/21 04:30:40;;;;;;;26.33;16.57;;;15.60;99.90;;;;;;5023298;28;21216;-74
2023/05/21 04:33:25;;;;;;;17.93;15.40;;;15.60;99.90;;;;;;5022892;28;20894;-71
2023/05/21 04:36:11;;;;;;;21.00;16.60;;;15.60;99.90;;;;;;5023035;28;20475;-72
2023/05/21 04:38:57;;;;;;;20.93;17.13;;;15.70;99.90;;;;;;5026107;28;20561;-71
2023/05/21 04:41:43;;;;;;;21.10;17.40;;;15.60;99.90;;;;;;5024629;28;20429;-72
2023/05/21 04:44:29;;;;;;;23.30;16.63;;;15.60;99.90;;;;;;5023363;28;20443;-72
2023/05/21 04:47:14;;;;;;;20.80;17.57;;;15.50;99.90;;;;;;5017595;28;21287;-72
2023/05/21 04:50:00;;;;;;;20.70;16.77;;;15.60;99.90;;;;;;5026793;28;21059;-72
2023/05/21 04:52:46;;;;;;;27.10;16.20;;;15.60;99.90;;;;;;5025889;28;20540;-71
2023/05/21 04:55:31;;;;;;;17.93;16.00;;;15.60;99.90;;;;;;5020210;28;20472;-71
2023/05/21 04:58:17;;;;;;;20.80;17.63;;;15.70;99.90;;;;;;5024875;28;20573;-71
2023/05/21 05:01:04;;;;;;;17.97;15.83;;;15.70;99.90;;;;;;5024518;28;20442;-72
2023/05/21 05:03:50;;;;;;;22.70;15.90;;;15.70;99.90;;;;;;5027534;28;20443;-71
2023/05/21 05:06:35;;;;;;;20.80;15.37;;;15.80;99.90;;;;;;5020042;28;20450;-72
2023/05/21 05:09:23;;;;;;;18.83;15.77;;;15.90;99.90;;;;;;5024405;28;20491;-73
2023/05/21 05:12:09;;;;;;;20.93;15.60;;;16.00;99.90;;;;;;5020304;28;20447;-72
2023/05/21 05:14:54;;;;;;;17.70;15.50;;;16.10;99.90;;;;;;5026491;28;20564;-72
2023/05/21 05:17:41;;;;;;;19.77;17.40;;;16.20;99.90;;;;;;5025986;28;20948;-72
2023/05/21 05:20:26;;;;;;;18.27;16.00;;;16.40;99.90;;;;;;5023071;28;20609;-72
2023/05/21 05:23:12;;;;;;;18.90;15.77;;;16.50;99.90;;;;;;5028778;28;20442;-71
2023/05/21 05:25:57;;;;;;;18.03;14.60;;;16.60;99.90;;;;;;5026065;28;20543;-72
2023/05/21 05:28:44;;;;;;;21.47;14.90;;;16.70;99.90;;;;;;5029115;28;20454;-72
2023/05/21 05:31:30;;;;;;;17.80;15.13;;;16.80;99.90;;;;;;5022882;28;20459;-72
2023/05/21 05:34:17;;;;;;;19.50;15.50;;;16.90;99.90;;;;;;5030243;28;20471;-71
2023/05/21 05:37:03;;;;;;;24.17;14.53;;;17.00;99.90;;;;;;5026059;28;20463;-72
2023/05/21 05:39:48;;;;;;;17.10;13.50;;;17.10;99.90;;;;;;5019742;28;20440;-73
2023/05/21 05:42:33;;;;;;;16.17;13.57;;;17.20;99.90;;;;;;5028302;28;20439;-71
2023/05/21 05:45:19;;;;;;;15.60;13.43;;;17.40;99.90;;;;;;5027008;28;20935;-72
2023/05/21 05:48:05;;;;;;;16.90;13.83;;;17.50;99.90;;;;;;5029659;28;20438;-72
2023/05/21 05:50:54;;;;;;;15.30;13.00;;;17.60;99.90;;;;;;5026539;28;20811;-71
2023/05/21 05:53:40;;;;;;;17.40;14.03;;;17.60;99.90;;;;;;5027313;28;20451;-71
2023/05/21 05:56:26;;;;;;;13.67;11.70;;;17.70;99.90;;;;;;5028247;28;21074;-71
2023/05/21 05:59:11;;;;;;;17.50;13.53;;;17.80;99.90;;;;;;5025594;28;20442;-72
2023/05/21 06:01:57;;;;;;;18.00;13.27;;;17.80;99.90;;;;;;5026270;28;20455;-72
2023/05/21 06:04:43;;;;;;;18.23;14.00;;;17.90;99.90;;;;;;5027329;28;20908;-72
2023/05/21 06:07:30;;;;;;;15.37;12.47;;;18.00;99.90;;;;;;5027937;28;20509;-72
2023/05/21 06:10:15;;;;;;;15.87;13.10;;;18.10;99.90;;;;;;5022101;28;20473;-72
2023/05/21 06:13:01;;;;;;;18.40;14.70;;;18.10;99.90;;;;;;5029874;28;20451;-71
2023/05/21 06:15:46;;;;;;;14.60;12.00;;;18.20;99.90;;;;;;5026118;28;20472;-71
2023/05/21 06:18:31;;;;;;;15.90;12.40;;;18.30;99.90;;;;;;5027981;28;20445;-72
2023/05/21 06:21:17;;;;;;;16.03;12.93;;;18.30;99.90;;;;;;5027237;28;20439;-72
2023/05/21 06:24:05;;;;;;;16.67;12.97;;;18.30;99.90;;;;;;5023124;28;20972;-72
2023/05/21 06:26:50;;;;;;;14.13;12.60;;;18.30;99.90;;;;;;5026394;28;20469;-72
2023/05/21 06:29:35;;;;;;;18.80;13.33;;;18.30;99.90;;;;;;5021551;28;20445;-72
2023/05/21 06:32:21;;;;;;;17.30;13.77;;;18.30;99.90;;;;;;5029428;28;20447;-72
2023/05/21 06:35:07;;;;;;;18.30;12.17;;;18.40;99.90;;;;;;5028193;28;21032;-71
2023/05/21 06:37:53;;;;;;;16.00;12.80;;;18.40;99.90;;;;;;5026270;28;20434;-72
2023/05/21 06:40:39;;;;;;;13.97;12.50;;;18.50;99.90;;;;;;5019702;28;20435;-72
2023/05/21 06:43:25;;;;;;;15.70;12.53;;;18.60;99.90;;;;;;5028002;28;20598;-71
2023/05/21 06:46:10;;;;;;;15.40;12.90;;;18.60;99.90;;;;;;5025728;28;20968;-71
2023/05/21 06:48:56;;;;;;;14.53;12.20;;;18.60;99.90;;;;;;5024437;28;20445;-72
2023/05/21 06:51:42;;;;;;;14.97;12.83;;;18.60;99.90;;;;;;5026076;28;20454;-72
2023/05/21 06:54:27;;;;;;;13.63;11.73;;;18.70;99.90;;;;;;5024365;28;20597;-72
2023/05/21 06:57:16;;;;;;;16.03;12.70;;;18.70;99.90;;;;;;5024570;28;20547;-74
2023/05/21 07:00:01;;;;;;;16.27;13.13;;;18.70;99.90;;;;;;5021644;28;20582;-71
2023/05/21 07:02:47;;;;;;;14.30;12.20;;;18.80;99.90;;;;;;5022639;28;22608;-72
2023/05/21 07:05:32;;;;;;;14.57;12.50;;;18.80;99.90;;;;;;5028102;28;20853;-72
2023/05/21 07:08:19;;;;;;;15.10;12.17;;;18.90;99.90;;;;;;5022030;28;20444;-72
2023/05/21 07:11:05;;;;;;;14.57;12.83;;;18.90;99.90;;;;;;5023918;28;20423;-72
2023/05/21 07:13:52;;;;;;;16.70;13.17;;;19.00;99.90;;;;;;5027410;28;20495;-71
2023/05/21 07:16:37;;;;;;;18.00;14.20;;;19.10;99.90;;;;;;5028434;28;20480;-75
2023/05/21 07:19:23;;;;;;;19.47;12.00;;;19.30;99.90;;;;;;5020363;28;20444;-71
2023/05/21 07:22:09;;;;;;;14.20;12.10;;;19.50;99.90;;;;;;5028333;28;21333;-73
2023/05/21 07:24:54;;;;;;;17.73;12.80;;;19.70;99.90;;;;;;5024355;28;20958;-72
2023/05/21 07:27:40;;;;;;;16.03;12.20;;;19.80;99.90;;;;;;5025876;28;20449;-72
2023/05/21 07:30:27;;;;;;;20.30;13.30;;;19.90;99.80;;;;;;5023548;28;20448;-71
2023/05/21 07:33:12;;;;;;;12.73;11.40;;;20.00;99.30;;;;;;5025549;28;20611;-73
2023/05/21 07:35:57;;;;;;;14.10;12.60;;;20.20;99.00;;;;;;5019001;28;20590;-71
2023/05/21 07:38:43;;;;;;;15.33;12.53;;;20.30;97.80;;;;;;5019962;28;21075;-72
2023/05/21 07:41:29;;;;;;;14.07;11.57;;;20.40;95.30;;;;;;5021883;28;20485;-72
2023/05/21 07:44:14;;;;;;;11.97;10.77;;;20.50;95.40;;;;;;5024043;28;20496;-73
2023/05/21 07:47:01;;;;;;;12.50;11.20;;;20.60;93.70;;;;;;5023909;28;20572;-71
2023/05/21 07:49:47;;;;;;;13.70;12.30;;;20.60;92.80;;;;;;5022604;28;20441;-72
2023/05/21 07:52:32;;;;;;;23.20;11.90;;;20.70;92.40;;;;;;5020778;28;20889;-72
2023/05/21 07:55:18;;;;;;;14.77;12.20;;;20.80;91.10;;;;;;5021820;28;20445;-73
2023/05/21 07:58:04;;;;;;;12.30;11.00;;;20.80;91.10;;;;;;5014561;28;20514;-72
2023/05/21 08:00:49;;;;;;;13.70;11.50;;;20.90;90.60;;;;;;5020271;28;20440;-72
2023/05/21 08:03:36;;;;;;;12.13;10.93;;;20.90;89.50;;;;;;5022975;28;20507;-74
2023/05/21 08:06:23;;;;;;;12.73;11.33;;;20.90;88.70;;;;;;5024053;28;20472;-72
2023/05/21 08:09:08;;;;;;;14.70;11.63;;;21.00;89.10;;;;;;5015375;28;20507;-72
2023/05/21 08:11:53;;;;;;;14.10;11.70;;;21.10;84.80;;;;;;5024893;28;20449;-72
2023/05/21 08:14:40;;;;;;;11.10;9.90;;;21.20;81.70;;;;;;5026276;28;20502;-72
2023/05/21 08:17:27;;;;;;;14.50;9.80;;;21.20;80.30;;;;;;5019994;28;20506;-72
2023/05/21 08:20:14;;;;;;;14.30;11.00;;;21.30;83.30;;;;;;5020109;28;20460;-72
2023/05/21 08:23:00;;;;;;;13.90;12.10;;;21.30;80.30;;;;;;5025753;28;20434;-72
2023/05/21 08:25:46;;;;;;;13.50;11.50;;;21.30;80.30;;;;;;5026423;28;20468;-71
2023/05/21 08:28:31;;;;;;;11.80;9.83;;;21.30;80.80;;;;;;5022119;28;20812;-71
2023/05/21 08:31:18;;;;;;;11.80;10.43;;;21.30;80.30;;;;;;5021671;28;20449;-73
2023/05/21 08:34:03;;;;;;;13.47;11.80;;;21.40;79.40;;;;;;5023183;28;20480;-72
2023/05/21 08:36:52;;;;;;;14.30;10.93;;;21.40;78.90;;;;;;5019608;28;20472;-72
2023/05/21 08:39:37;;;;;;;13.70;12.17;;;21.50;77.00;;;;;;5026802;28;20452;-72
2023/05/21 08:42:33;;;;;;;14.03;10.87;;;21.50;77.30;;;;;;5025176;28;20507;-72
2023/05/21 08:45:21;;;;;;;12.03;10.47;;;21.50;77.00;;;;;;5025281;28;20444;-72
2023/05/21 08:48:08;;;;;;;13.17;10.80;;;21.50;76.20;;;;;;5020620;28;20934;-72
2023/05/21 08:50:54;;;;;;;14.57;12.67;;;21.40;76.10;;;;;;5025259;28;20954;-71
2023/05/21 08:53:41;;;;;;;11.20;10.10;;;21.30;77.50;;;;;;5021669;28;20488;-72
2023/05/21 08:56:27;;;;;;;11.67;10.47;;;21.20;77.50;;;;;;5026015;28;20455;-72
2023/05/21 08:59:14;;;;;;;11.97;10.67;;;21.20;75.70;;;;;;5030675;28;20447;-72
2023/05/21 09:02:00;;;;;;;12.83;10.43;;;21.20;76.90;;;;;;5030160;28;20464;-71
2023/05/21 09:04:47;;;;;;;12.97;10.50;;;21.10;75.00;;;;;;5028934;28;20444;-71
2023/05/21 09:07:39;;;;;;;13.43;10.40;;;21.10;75.50;;;;;;5027937;28;20603;-72
2023/05/21 09:10:32;;;;;;;11.60;10.43;;;21.10;75.50;;;;;;5026504;28;20430;-72
2023/05/21 09:13:18;;;;;;;11.90;10.20;;;21.10;75.50;;;;;;5029796;28;20481;-72
2023/05/21 09:16:05;;;;;;;11.83;10.30;;;21.10;74.50;;;;;;5027727;28;20500;-71
2023/05/21 09:18:50;;;;;;;17.57;10.93;;;21.10;75.50;;;;;;5027236;28;20449;-71
2023/05/21 09:21:38;;;;;;;12.47;11.17;;;21.20;75.90;;;;;;5031136;28;20974;-72
2023/05/21 09:24:24;;;;;;;12.00;10.70;;;21.20;76.00;;;;;;5028844;28;21066;-73
2023/05/21 09:27:11;;;;;;;15.60;11.00;;;21.30;76.90;;;;;;5024357;28;20465;-72
2023/05/21 09:29:56;;;;;;;12.60;11.30;;;21.50;78.30;;;;;;5020302;28;20454;-72
2023/05/21 09:32:42;;;;;;;11.90;10.70;;;21.60;75.90;;;;;;5024728;28;21099;-72
2023/05/21 09:35:27;;;;;;;11.13;10.00;;;21.70;75.70;;;;;;5027953;28;20451;-71
2023/05/21 09:38:13;;;;;;;12.07;10.63;;;21.80;72.70;;;;;;5025809;28;20967;-72
2023/05/21 09:40:58;;;;;;;11.83;10.43;;;21.80;71.60;;;;;;5031640;28;20941;-72
2023/05/21 09:43:45;;;;;;;15.40;11.27;;;21.90;73.00;;;;;;5036516;28;20806;-71
2023/05/21 09:46:38;;;;;;;15.10;11.70;;;22.20;71.10;;;;;;5022065;28;20844;-73
2023/05/21 09:49:25;;;;;;;14.17;12.30;;;22.30;70.50;;;;;;5025384;28;20990;-72
2023/05/21 09:52:10;;;;;;;12.50;11.30;;;22.40;69.00;;;;;;5026015;28;20440;-72
2023/05/21 09:54:56;;;;;;;12.10;10.23;;;22.60;69.60;;;;;;5032393;28;21014;-72
2023/05/21 09:57:42;;;;;;;13.60;11.00;;;22.70;68.70;;;;;;5024835;28;20814;-72
2023/05/21 10:00:29;;;;;;;13.80;11.40;;;22.80;69.10;;;;;;5031242;28;20477;-71
2023/05/21 10:03:16;;;;;;;12.50;11.17;;;22.90;67.30;;;;;;5026010;28;20421;-72
2023/05/21 10:06:02;;;;;;;14.47;11.73;;;23.10;67.50;;;;;;5015782;28;20559;-72
2023/05/21 10:08:52;;;;;;;15.23;12.00;;;23.30;67.60;;;;;;5028201;28;21041;-71
2023/05/21 10:11:38;;;;;;;11.20;10.03;;;23.40;65.90;;;;;;5025063;28;20492;-71
2023/05/21 10:14:27;;;;;;;13.43;11.70;;;23.40;65.20;;;;;;5024979;28;20476;-71
2023/05/21 10:17:14;;;;;;;13.00;11.00;;;23.40;67.30;;;;;;5025741;28;21174;-72
2023/05/21 10:20:00;;;;;;;13.07;11.70;;;23.50;67.80;;;;;;5028564;28;20449;-72
2023/05/21 10:22:47;;;;;;;15.30;12.30;;;23.50;66.80;;;;;;5030045;28;20572;-72
2023/05/21 10:25:32;;;;;;;13.23;10.97;;;23.40;65.80;;;;;;5027348;28;20473;-73
2023/05/21 10:28:19;;;;;;;12.43;10.37;;;23.50;64.80;;;;;;5028154;28;20460;-72
2023/05/21 10:31:06;;;;;;;14.17;10.90;;;23.50;65.20;;;;;;5029361;28;20520;-72
2023/05/21 10:33:53;;;;;;;12.27;10.37;;;23.50;65.40;;;;;;5027967;28;20451;-72
2023/05/21 10:36:39;;;;;;;12.90;10.90;;;23.50;64.00;;;;;;5021026;28;20611;-72
2023/05/21 10:39:25;;;;;;;12.90;11.50;;;23.50;65.10;;;;;;5031983;28;20521;-72
2023/05/21 10:42:19;;;;;;;11.47;10.33;;;23.60;66.10;;;;;;5019978;28;20448;-73
2023/05/21 10:45:16;;;;;;;12.67;10.80;;;23.60;64.60;;;;;;5026297;28;20437;-72
2023/05/21 10:48:29;;;;;;;13.70;10.90;;;23.60;64.30;;;;;;5024161;28;20444;-73
2023/05/21 10:51:23;;;;;;;14.33;11.93;;;23.60;64.10;;;;;;5028645;28;20498;-72
2023/05/21 10:54:34;;;;;;;14.63;11.43;;;23.60;65.10;;;;;;5020213;28;20469;-72
2023/05/21 10:57:36;;;;;;;13.10;11.20;;;23.70;65.00;;;;;;5020620;28;20973;-73
2023/05/21 11:00:24;;;;;;;14.90;11.97;;;23.70;63.00;;;;;;5024603;28;20428;-72
2023/05/21 11:03:11;;;;;;;17.43;11.10;;;23.80;62.70;;;;;;5031291;28;20484;-73
2023/05/21 11:05:57;;;;;;;14.93;11.10;;;23.90;62.90;;;;;;5027261;28;20495;-72
2023/05/21 11:08:47;;;;;;;12.93;11.63;;;23.90;64.20;;;;;;5012161;28;20497;-72
2023/05/21 11:11:44;;;;;;;11.90;9.83;;;24.10;63.50;;;;;;5013399;28;21067;-73
2023/05/21 11:14:33;;;;;;;14.30;10.37;;;24.20;63.40;;;;;;5022078;28;20481;-73
2023/05/21 11:17:36;;;;;;;13.90;10.80;;;24.40;61.20;;;;;;5017216;28;20585;-72
2023/05/21 11:20:22;;;;;;;11.43;10.00;;;24.50;61.30;;;;;;5027187;28;20831;-72
2023/05/21 11:23:07;;;;;;;11.67;10.47;;;24.60;59.60;;;;;;5022327;28;20527;-74
2023/05/21 11:26:01;;;;;;;14.30;10.13;;;24.70;60.00;;;;;;5027129;28;20465;-72
2023/05/21 11:28:46;;;;;;;14.07;10.53;;;24.80;58.50;;;;;;5029212;28;20468;-73
2023/05/21 11:31:36;;;;;;;11.43;10.17;;;24.90;57.30;;;;;;5025461;28;20519;-73
2023/05/21 11:34:27;;;;;;;12.93;10.20;;;24.90;56.10;;;;;;5021382;28;20475;-75
2023/05/21 11:37:29;;;;;;;11.97;10.77;;;25.00;51.70;;;;;;5026289;28;20599;-72
2023/05/21 11:40:29;;;;;;;9.50;8.10;;;25.00;52.60;;;;;;5022791;28;20592;-72
2023/05/21 11:43:15;;;;;;;11.73;9.30;;;25.10;47.60;;;;;;5018632;28;20465;-72
2023/05/21 11:46:02;;;;;;;11.23;10.03;;;25.20;48.20;;;;;;5025385;28;20797;-72
2023/05/21 11:48:49;;;;;;;9.83;8.83;;;25.50;45.30;;;;;;5024912;28;20456;-72
2023/05/21 11:51:35;;;;;;;10.40;9.30;;;25.70;41.90;;;;;;5026015;28;20445;-72
2023/05/21 11:54:21;;;;;;;9.97;8.97;;;25.70;41.60;;;;;;5019745;28;20476;-72
2023/05/21 11:57:07;;;;;;;11.90;9.10;;;25.80;38.70;;;;;;5029076;28;20816;-73
2023/05/21 11:59:55;;;;;;;10.20;9.20;;;25.90;38.00;;;;;;5030261;28;20959;-72
2023/05/21 12:02:45;;;;;;;10.30;9.17;;;26.00;37.80;;;;;;5017466;28;20919;-73
2023/05/21 12:05:30;;;;;;;11.70;9.60;;;26.10;37.70;;;;;;5025121;28;20445;-73
2023/05/21 12:08:24;;;;;;;12.97;9.80;;;26.30;38.80;;;;;;5028561;28;20568;-72
2023/05/21 12:11:09;;;;;;;10.40;9.00;;;26.30;36.80;;;;;;5026822;28;20472;-73
2023/05/21 12:13:55;;;;;;;19.93;9.87;;;26.30;34.20;;;;;;5021879;28;20536;-73
2023/05/21 12:16:42;;;;;;;11.00;9.40;;;26.30;35.40;;;;;;5024637;28;20464;-73
2023/05/21 12:19:27;;;;;;;15.30;11.27;;;26.30;38.80;;;;;;5019791;28;20907;-73
2023/05/21 12:22:14;;;;;;;14.60;9.20;;;26.30;38.60;;;;;;5016813;28;20545;-73
2023/05/21 12:24:59;;;;;;;13.87;10.20;;;26.30;37.40;;;;;;5023989;28;20921;-74
2023/05/21 12:27:45;;;;;;;15.10;10.47;;;26.30;37.40;;;;;;5027912;28;20816;-73
2023/05/21 12:30:30;;;;;;;13.03;9.10;;;26.30;36.30;;;;;;5026397;28;20445;-71
2023/05/21 12:33:18;;;;;;;11.10;10.00;;;26.20;34.40;;;;;;5020223;28;20494;-71
2023/05/21 12:36:03;;;;;;;11.07;9.97;;;26.20;37.00;;;;;;5034127;28;20472;-72
2023/05/21 12:38:50;;;;;;;10.67;9.57;;;26.10;36.50;;;;;;5032772;28;20461;-72
2023/05/21 12:41:36;;;;;;;13.43;10.27;;;26.10;36.10;;;;;;5027765;28;20448;-74
2023/05/21 12:44:21;;;;;;;10.63;9.43;;;26.10;36.40;;;;;;5029404;28;20444;-72
2023/05/21 12:47:07;;;;;;;12.23;9.27;;;26.10;37.90;;;;;;5024859;28;20524;-72
2023/05/21 12:49:57;;;;;;;10.43;8.80;;;26.20;37.30;;;;;;5029861;28;20977;-70
2023/05/21 12:52:44;;;;;;;9.23;8.33;;;26.30;36.60;;;;;;5023078;28;20523;-72
2023/05/21 12:55:31;;;;;;;11.23;8.10;;;26.30;34.10;;;;;;5027400;28;20827;-72
2023/05/21 12:58:22;;;;;;;12.57;9.20;;;26.30;31.60;;;;;;5029973;28;20592;-73
2023/05/21 13:01:08;;;;;;;10.33;9.20;;;26.40;33.20;;;;;;5025960;28;20492;-72
2023/05/21 13:03:53;;;;;;;9.40;7.70;;;26.30;30.70;;;;;;5027907;28;20446;-72
2023/05/21 13:06:43;;;;;;;8.60;7.40;;;26.30;31.60;;;;;;5027259;28;20448;-72
2023/05/21 13:09:29;;;;;;;10.20;7.80;;;26.30;29.50;;;;;;5027103;28;20429;-71
2023/05/21 13:12:14;;;;;;;8.63;7.40;;;26.40;28.70;;;;;;5030405;28;20472;-72
2023/05/21 13:15:01;;;;;;;10.53;8.53;;;26.50;27.80;;;;;;5021289;28;20474;-72
2023/05/21 13:17:47;;;;;;;9.57;7.93;;;26.60;26.40;;;;;;5030727;28;20468;-72
2023/05/21 13:20:32;;;;;;;9.40;7.23;;;26.60;27.90;;;;;;5032031;28;20441;-73
2023/05/21 13:23:19;;;;;;;9.77;8.27;;;26.70;27.90;;;;;;5028281;28;20451;-72
2023/05/21 13:26:05;;;;;;;11.03;8.07;;;26.80;27.60;;;;;;5025719;28;20476;-72
2023/05/21 13:28:50;;;;;;;8.63;7.63;;;26.80;27.20;;;;;;5032573;28;20520;-72
2023/05/21 13:31:36;;;;;;;9.70;8.20;;;26.90;28.70;;;;;;5028293;28;20607;-72
2023/05/21 13:34:21;;;;;;;8.57;7.57;;;26.90;28.00;;;;;;5022308;28;20588;-72
2023/05/21 13:37:07;;;;;;;11.07;8.17;;;26.90;28.80;;;;;;5031339;28;21050;-72
2023/05/21 13:39:54;;;;;;;12.23;7.90;;;27.00;30.20;;;;;;5031469;28;20498;-72
2023/05/21 13:42:40;;;;;;;10.50;8.33;;;27.10;27.70;;;;;;5028139;28;20437;-73
2023/05/21 13:45:27;;;;;;;10.47;8.13;;;27.00;26.90;;;;;;5031243;28;20432;-73
2023/05/21 13:48:13;;;;;;;8.90;8.00;;;27.10;28.60;;;;;;5031956;28;20448;-72
2023/05/21 13:50:58;;;;;;;13.60;8.00;;;27.10;26.80;;;;;;5028182;28;20448;-72
2023/05/21 13:53:44;;;;;;;10.97;7.33;;;27.10;25.70;;;;;;5030227;28;20534;-72
2023/05/21 13:56:32;;;;;;;8.47;7.20;;;27.30;27.40;;;;;;5031611;28;20596;-72
2023/05/21 13:59:17;;;;;;;13.60;7.40;;;27.30;25.40;;;;;;5031755;28;20495;-72
2023/05/21 14:02:03;;;;;;;8.70;7.73;;;27.30;24.10;;;;;;5018524;28;20411;-72
2023/05/21 14:04:49;;;;;;;8.17;7.27;;;27.40;25.40;;;;;;5029910;28;20448;-73
2023/05/21 14:07:34;;;;;;;9.40;7.60;;;27.40;24.70;;;;;;5031890;28;20483;-73